sensor_id;sensor_type;location;lat;lon;timestamp;P1;durP1;ratioP1;P2;durP2;ratioP2
53040;SDS011;39326;42.650;23.248;2023-07-30T00:01:46;2.75;;;2.55;;
53040;SDS011;39326;42.650;23.248;2023-07-30T00:04:12;2.10;;;2.00;;
53040;SDS011;39326;42.650;23.248;2023-07-30T00:06:39;2.75;;;2.17;;
53040;SDS011;39326;42.650;23.248;2023-07-30T00:09:05;2.63;;;2.42;;
53040;SDS011;39326;42.650;23.248;2023-07-30T00:11:31;3.33;;;2.95;;
53040;SDS011;39326;42.650;23.248;2023-07-30T00:13:57;2.60;;;2.40;;
53040;SDS011;39326;42.650;23.248;2023-07-30T00:16:25;2.92;;;2.72;;
53040;SDS011;39326;42.650;23.248;2023-07-30T00:18:52;3.22;;;2.60;;
53040;SDS011;39326;42.650;23.248;2023-07-30T00:21:17;2.60;;;2.40;;
53040;SDS011;39326;42.650;23.248;2023-07-30T00:23:44;3.05;;;2.60;;
53040;SDS011;39326;42.650;23.248;2023-07-30T00:26:10;3.00;;;2.75;;
53040;SDS011;39326;42.650;23.248;2023-07-30T00:28:36;2.70;;;2.50;;
53040;SDS011;39326;42.650;23.248;2023-07-30T00:31:02;2.55;;;2.35;;
53040;SDS011;39326;42.650;23.248;2023-07-30T00:33:28;2.80;;;2.60;;
53040;SDS011;39326;42.650;23.248;2023-07-30T00:35:54;2.83;;;2.63;;
53040;SDS011;39326;42.650;23.248;2023-07-30T00:38:20;3.33;;;2.45;;
53040;SDS011;39326;42.650;23.248;2023-07-30T00:40:46;3.03;;;2.78;;
53040;SDS011;39326;42.650;23.248;2023-07-30T00:43:12;2.92;;;2.40;;
53040;SDS011;39326;42.650;23.248;2023-07-30T00:45:38;3.05;;;2.80;;
53040;SDS011;39326;42.650;23.248;2023-07-30T00:48:06;3.03;;;2.55;;
53040;SDS011;39326;42.650;23.248;2023-07-30T00:50:32;2.42;;;2.33;;
53040;SDS011;39326;42.650;23.248;2023-07-30T00:52:58;2.65;;;2.45;;
53040;SDS011;39326;42.650;23.248;2023-07-30T00:55:25;2.30;;;2.10;;
53040;SDS011;39326;42.650;23.248;2023-07-30T00:57:51;2.10;;;2.00;;
53040;SDS011;39326;42.650;23.248;2023-07-30T01:00:17;3.63;;;2.20;;
53040;SDS011;39326;42.650;23.248;2023-07-30T01:02:43;2.30;;;2.20;;
53040;SDS011;39326;42.650;23.248;2023-07-30T01:05:10;2.80;;;2.60;;
53040;SDS011;39326;42.650;23.248;2023-07-30T01:07:36;4.53;;;2.55;;
53040;SDS011;39326;42.650;23.248;2023-07-30T01:10:02;2.30;;;2.10;;
53040;SDS011;39326;42.650;23.248;2023-07-30T01:12:29;3.53;;;2.38;;
53040;SDS011;39326;42.650;23.248;2023-07-30T01:14:56;2.40;;;2.20;;
53040;SDS011;39326;42.650;23.248;2023-07-30T01:17:23;2.35;;;2.25;;
53040;SDS011;39326;42.650;23.248;2023-07-30T01:19:52;2.70;;;2.50;;
53040;SDS011;39326;42.650;23.248;2023-07-30T01:22:20;3.50;;;2.60;;
53040;SDS011;39326;42.650;23.248;2023-07-30T01:24:46;2.38;;;2.17;;
53040;SDS011;39326;42.650;23.248;2023-07-30T01:27:19;2.67;;;2.47;;
53040;SDS011;39326;42.650;23.248;2023-07-30T01:30:05;2.30;;;2.10;;
53040;SDS011;39326;42.650;23.248;2023-07-30T01:32:37;2.58;;;2.38;;
53040;SDS011;39326;42.650;23.248;2023-07-30T01:35:08;2.42;;;2.22;;
53040;SDS011;39326;42.650;23.248;2023-07-30T01:37:34;2.78;;;2.58;;
53040;SDS011;39326;42.650;23.248;2023-07-30T01:40:02;2.95;;;2.53;;
53040;SDS011;39326;42.650;23.248;2023-07-30T01:42:29;2.70;;;2.50;;
53040;SDS011;39326;42.650;23.248;2023-07-30T01:44:56;3.80;;;2.70;;
53040;SDS011;39326;42.650;23.248;2023-07-30T01:47:22;2.72;;;2.53;;
53040;SDS011;39326;42.650;23.248;2023-07-30T01:49:48;2.75;;;2.30;;
53040;SDS011;39326;42.650;23.248;2023-07-30T01:52:15;4.13;;;2.70;;
53040;SDS011;39326;42.650;23.248;2023-07-30T01:54:41;2.60;;;2.40;;
53040;SDS011;39326;42.650;23.248;2023-07-30T01:57:07;2.83;;;2.63;;
53040;SDS011;39326;42.650;23.248;2023-07-30T01:59:34;2.67;;;2.47;;
53040;SDS011;39326;42.650;23.248;2023-07-30T02:02:00;2.88;;;2.60;;
53040;SDS011;39326;42.650;23.248;2023-07-30T02:04:27;3.20;;;2.40;;
53040;SDS011;39326;42.650;23.248;2023-07-30T02:06:53;3.03;;;2.83;;
53040;SDS011;39326;42.650;23.248;2023-07-30T02:09:19;2.85;;;2.50;;
53040;SDS011;39326;42.650;23.248;2023-07-30T02:11:46;2.42;;;2.22;;
53040;SDS011;39326;42.650;23.248;2023-07-30T02:14:12;2.60;;;2.40;;
53040;SDS011;39326;42.650;23.248;2023-07-30T02:16:38;2.72;;;2.53;;
53040;SDS011;39326;42.650;23.248;2023-07-30T02:19:05;3.03;;;2.70;;
53040;SDS011;39326;42.650;23.248;2023-07-30T02:21:31;2.30;;;2.20;;
53040;SDS011;39326;42.650;23.248;2023-07-30T02:23:58;2.67;;;2.47;;
53040;SDS011;39326;42.650;23.248;2023-07-30T02:26:24;3.15;;;2.95;;
53040;SDS011;39326;42.650;23.248;2023-07-30T02:28:51;3.15;;;2.47;;
53040;SDS011;39326;42.650;23.248;2023-07-30T02:31:17;2.70;;;2.50;;
53040;SDS011;39326;42.650;23.248;2023-07-30T02:33:43;2.67;;;2.47;;
53040;SDS011;39326;42.650;23.248;2023-07-30T02:36:09;3.13;;;2.55;;
53040;SDS011;39326;42.650;23.248;2023-07-30T02:38:35;2.80;;;2.60;;
53040;SDS011;39326;42.650;23.248;2023-07-30T02:41:01;3.03;;;2.83;;
53040;SDS011;39326;42.650;23.248;2023-07-30T02:43:27;2.67;;;2.47;;
53040;SDS011;39326;42.650;23.248;2023-07-30T02:45:55;2.58;;;2.33;;
53040;SDS011;39326;42.650;23.248;2023-07-30T02:48:21;3.03;;;2.67;;
53040;SDS011;39326;42.650;23.248;2023-07-30T02:50:48;3.58;;;2.92;;
53040;SDS011;39326;42.650;23.248;2023-07-30T02:53:14;6.15;;;2.60;;
53040;SDS011;39326;42.650;23.248;2023-07-30T02:55:40;4.97;;;2.75;;
53040;SDS011;39326;42.650;23.248;2023-07-30T02:58:05;3.97;;;2.67;;
53040;SDS011;39326;42.650;23.248;2023-07-30T03:00:31;3.38;;;2.85;;
53040;SDS011;39326;42.650;23.248;2023-07-30T03:02:57;3.33;;;2.72;;
53040;SDS011;39326;42.650;23.248;2023-07-30T03:05:23;2.97;;;2.78;;
53040;SDS011;39326;42.650;23.248;2023-07-30T03:07:49;4.18;;;3.05;;
53040;SDS011;39326;42.650;23.248;2023-07-30T03:10:15;3.60;;;3.10;;
53040;SDS011;39326;42.650;23.248;2023-07-30T03:12:41;3.22;;;2.80;;
53040;SDS011;39326;42.650;23.248;2023-07-30T03:15:08;5.70;;;2.63;;
53040;SDS011;39326;42.650;23.248;2023-07-30T03:17:34;4.75;;;2.42;;
53040;SDS011;39326;42.650;23.248;2023-07-30T03:20:00;2.75;;;2.50;;
53040;SDS011;39326;42.650;23.248;2023-07-30T03:22:26;2.67;;;2.47;;
53040;SDS011;39326;42.650;23.248;2023-07-30T03:24:53;3.15;;;2.85;;
53040;SDS011;39326;42.650;23.248;2023-07-30T03:27:19;3.08;;;2.83;;
53040;SDS011;39326;42.650;23.248;2023-07-30T03:29:46;3.03;;;2.83;;
53040;SDS011;39326;42.650;23.248;2023-07-30T03:32:11;3.45;;;3.15;;
53040;SDS011;39326;42.650;23.248;2023-07-30T03:34:38;3.45;;;3.03;;
53040;SDS011;39326;42.650;23.248;2023-07-30T03:37:04;2.90;;;2.70;;
53040;SDS011;39326;42.650;23.248;2023-07-30T03:39:29;3.72;;;3.42;;
53040;SDS011;39326;42.650;23.248;2023-07-30T03:41:56;2.95;;;2.55;;
53040;SDS011;39326;42.650;23.248;2023-07-30T03:44:22;3.17;;;2.50;;
53040;SDS011;39326;42.650;23.248;2023-07-30T03:46:48;3.55;;;2.72;;
53040;SDS011;39326;42.650;23.248;2023-07-30T03:49:14;3.85;;;2.60;;
53040;SDS011;39326;42.650;23.248;2023-07-30T03:51:41;2.85;;;2.58;;
53040;SDS011;39326;42.650;23.248;2023-07-30T03:54:06;2.70;;;2.50;;
53040;SDS011;39326;42.650;23.248;2023-07-30T03:56:33;2.63;;;2.42;;
53040;SDS011;39326;42.650;23.248;2023-07-30T03:58:59;3.00;;;2.80;;
53040;SDS011;39326;42.650;23.248;2023-07-30T04:01:25;3.75;;;2.83;;
53040;SDS011;39326;42.650;23.248;2023-07-30T04:03:53;2.70;;;2.50;;
53040;SDS011;39326;42.650;23.248;2023-07-30T04:06:18;3.55;;;2.60;;
53040;SDS011;39326;42.650;23.248;2023-07-30T04:08:45;2.95;;;2.65;;
53040;SDS011;39326;42.650;23.248;2023-07-30T04:11:11;2.85;;;2.65;;
53040;SDS011;39326;42.650;23.248;2023-07-30T04:13:38;2.83;;;2.63;;
53040;SDS011;39326;42.650;23.248;2023-07-30T04:16:04;3.10;;;2.80;;
53040;SDS011;39326;42.650;23.248;2023-07-30T04:18:30;3.20;;;2.88;;
53040;SDS011;39326;42.650;23.248;2023-07-30T04:20:56;3.15;;;2.90;;
53040;SDS011;39326;42.650;23.248;2023-07-30T04:23:23;3.00;;;2.80;;
53040;SDS011;39326;42.650;23.248;2023-07-30T04:25:49;6.38;;;2.63;;
53040;SDS011;39326;42.650;23.248;2023-07-30T04:28:15;4.03;;;3.17;;
53040;SDS011;39326;42.650;23.248;2023-07-30T04:30:41;3.22;;;2.92;;
53040;SDS011;39326;42.650;23.248;2023-07-30T04:33:07;3.50;;;3.20;;
53040;SDS011;39326;42.650;23.248;2023-07-30T04:35:33;3.35;;;3.05;;
53040;SDS011;39326;42.650;23.248;2023-07-30T04:37:59;3.25;;;2.88;;
53040;SDS011;39326;42.650;23.248;2023-07-30T04:40:25;3.30;;;3.10;;
53040;SDS011;39326;42.650;23.248;2023-07-30T04:42:51;5.20;;;3.25;;
53040;SDS011;39326;42.650;23.248;2023-07-30T04:45:17;3.33;;;2.95;;
53040;SDS011;39326;42.650;23.248;2023-07-30T04:47:43;3.60;;;3.13;;
53040;SDS011;39326;42.650;23.248;2023-07-30T04:50:09;3.95;;;3.10;;
53040;SDS011;39326;42.650;23.248;2023-07-30T04:52:35;3.72;;;3.42;;
53040;SDS011;39326;42.650;23.248;2023-07-30T04:55:01;4.85;;;3.53;;
53040;SDS011;39326;42.650;23.248;2023-07-30T04:57:27;3.45;;;3.15;;
53040;SDS011;39326;42.650;23.248;2023-07-30T04:59:53;3.78;;;3.15;;
53040;SDS011;39326;42.650;23.248;2023-07-30T05:02:19;3.75;;;3.45;;
53040;SDS011;39326;42.650;23.248;2023-07-30T05:04:45;3.38;;;3.08;;
53040;SDS011;39326;42.650;23.248;2023-07-30T05:07:12;6.18;;;3.65;;
53040;SDS011;39326;42.650;23.248;2023-07-30T05:09:38;3.60;;;3.22;;
53040;SDS011;39326;42.650;23.248;2023-07-30T05:12:04;4.38;;;3.25;;
53040;SDS011;39326;42.650;23.248;2023-07-30T05:14:30;4.85;;;3.60;;
53040;SDS011;39326;42.650;23.248;2023-07-30T05:16:55;3.92;;;3.38;;
53040;SDS011;39326;42.650;23.248;2023-07-30T05:19:21;4.30;;;3.40;;
53040;SDS011;39326;42.650;23.248;2023-07-30T05:21:47;5.13;;;3.80;;
53040;SDS011;39326;42.650;23.248;2023-07-30T05:24:12;3.55;;;3.33;;
53040;SDS011;39326;42.650;23.248;2023-07-30T05:26:39;3.72;;;3.42;;
53040;SDS011;39326;42.650;23.248;2023-07-30T05:29:05;4.03;;;3.00;;
53040;SDS011;39326;42.650;23.248;2023-07-30T05:31:32;4.18;;;3.35;;
53040;SDS011;39326;42.650;23.248;2023-07-30T05:33:58;4.55;;;3.58;;
53040;SDS011;39326;42.650;23.248;2023-07-30T05:36:24;4.63;;;4.13;;
53040;SDS011;39326;42.650;23.248;2023-07-30T05:38:50;4.30;;;3.90;;
53040;SDS011;39326;42.650;23.248;2023-07-30T05:41:16;3.97;;;3.67;;
53040;SDS011;39326;42.650;23.248;2023-07-30T05:43:42;5.40;;;4.50;;
53040;SDS011;39326;42.650;23.248;2023-07-30T05:46:08;5.30;;;4.15;;
53040;SDS011;39326;42.650;23.248;2023-07-30T05:48:35;5.07;;;4.40;;
53040;SDS011;39326;42.650;23.248;2023-07-30T05:51:01;5.97;;;4.13;;
53040;SDS011;39326;42.650;23.248;2023-07-30T05:53:26;4.60;;;4.22;;
53040;SDS011;39326;42.650;23.248;2023-07-30T05:55:53;5.03;;;4.47;;
53040;SDS011;39326;42.650;23.248;2023-07-30T05:58:19;4.80;;;4.40;;
53040;SDS011;39326;42.650;23.248;2023-07-30T06:00:45;5.78;;;4.50;;
53040;SDS011;39326;42.650;23.248;2023-07-30T06:03:11;5.10;;;4.60;;
53040;SDS011;39326;42.650;23.248;2023-07-30T06:05:40;5.53;;;5.03;;
53040;SDS011;39326;42.650;23.248;2023-07-30T06:08:07;6.10;;;5.57;;
53040;SDS011;39326;42.650;23.248;2023-07-30T06:10:36;5.45;;;5.00;;
53040;SDS011;39326;42.650;23.248;2023-07-30T06:13:06;5.15;;;4.75;;
53040;SDS011;39326;42.650;23.248;2023-07-30T06:15:32;6.10;;;5.53;;
53040;SDS011;39326;42.650;23.248;2023-07-30T06:18:00;5.72;;;5.22;;
53040;SDS011;39326;42.650;23.248;2023-07-30T06:20:26;5.47;;;5.07;;
53040;SDS011;39326;42.650;23.248;2023-07-30T06:22:53;5.97;;;5.47;;
53040;SDS011;39326;42.650;23.248;2023-07-30T06:25:18;5.60;;;4.80;;
53040;SDS011;39326;42.650;23.248;2023-07-30T06:27:44;6.20;;;5.35;;
53040;SDS011;39326;42.650;23.248;2023-07-30T06:30:10;10.15;;;5.07;;
53040;SDS011;39326;42.650;23.248;2023-07-30T06:32:36;6.68;;;5.25;;
53040;SDS011;39326;42.650;23.248;2023-07-30T06:35:02;5.03;;;4.63;;
53040;SDS011;39326;42.650;23.248;2023-07-30T06:37:28;5.57;;;5.05;;
53040;SDS011;39326;42.650;23.248;2023-07-30T06:39:54;6.38;;;4.68;;
53040;SDS011;39326;42.650;23.248;2023-07-30T06:42:21;6.70;;;5.47;;
53040;SDS011;39326;42.650;23.248;2023-07-30T06:44:47;5.20;;;4.70;;
53040;SDS011;39326;42.650;23.248;2023-07-30T06:47:13;5.60;;;5.10;;
53040;SDS011;39326;42.650;23.248;2023-07-30T06:49:40;5.05;;;4.53;;
53040;SDS011;39326;42.650;23.248;2023-07-30T06:52:06;5.30;;;4.80;;
53040;SDS011;39326;42.650;23.248;2023-07-30T06:54:32;5.03;;;4.53;;
53040;SDS011;39326;42.650;23.248;2023-07-30T06:56:58;4.95;;;4.47;;
53040;SDS011;39326;42.650;23.248;2023-07-30T06:59:24;4.85;;;4.43;;
53040;SDS011;39326;42.650;23.248;2023-07-30T07:01:51;4.63;;;4.22;;
53040;SDS011;39326;42.650;23.248;2023-07-30T07:04:17;5.40;;;4.45;;
53040;SDS011;39326;42.650;23.248;2023-07-30T07:06:43;7.07;;;4.60;;
53040;SDS011;39326;42.650;23.248;2023-07-30T07:09:09;5.70;;;4.75;;
53040;SDS011;39326;42.650;23.248;2023-07-30T07:11:34;4.70;;;4.18;;
53040;SDS011;39326;42.650;23.248;2023-07-30T07:14:00;5.60;;;4.57;;
53040;SDS011;39326;42.650;23.248;2023-07-30T07:16:25;4.53;;;4.20;;
53040;SDS011;39326;42.650;23.248;2023-07-30T07:18:51;6.07;;;4.72;;
53040;SDS011;39326;42.650;23.248;2023-07-30T07:21:16;5.13;;;4.72;;
53040;SDS011;39326;42.650;23.248;2023-07-30T07:23:41;5.95;;;4.43;;
53040;SDS011;39326;42.650;23.248;2023-07-30T07:26:07;4.35;;;3.97;;
53040;SDS011;39326;42.650;23.248;2023-07-30T07:28:32;6.32;;;4.35;;
53040;SDS011;39326;42.650;23.248;2023-07-30T07:30:58;5.25;;;4.15;;
53040;SDS011;39326;42.650;23.248;2023-07-30T07:33:23;6.25;;;4.22;;
53040;SDS011;39326;42.650;23.248;2023-07-30T07:35:49;4.47;;;4.07;;
53040;SDS011;39326;42.650;23.248;2023-07-30T07:38:14;5.00;;;4.57;;
53040;SDS011;39326;42.650;23.248;2023-07-30T07:40:40;4.28;;;3.85;;
53040;SDS011;39326;42.650;23.248;2023-07-30T07:43:06;4.47;;;4.07;;
53040;SDS011;39326;42.650;23.248;2023-07-30T07:45:32;4.80;;;4.28;;
53040;SDS011;39326;42.650;23.248;2023-07-30T07:47:57;4.97;;;4.57;;
53040;SDS011;39326;42.650;23.248;2023-07-30T07:50:23;5.72;;;4.38;;
53040;SDS011;39326;42.650;23.248;2023-07-30T07:52:48;4.90;;;3.95;;
53040;SDS011;39326;42.650;23.248;2023-07-30T07:55:14;4.57;;;3.80;;
53040;SDS011;39326;42.650;23.248;2023-07-30T07:57:39;4.80;;;4.30;;
53040;SDS011;39326;42.650;23.248;2023-07-30T08:00:05;4.03;;;3.72;;
53040;SDS011;39326;42.650;23.248;2023-07-30T08:02:31;4.25;;;3.92;;
53040;SDS011;39326;42.650;23.248;2023-07-30T08:04:57;4.47;;;4.10;;
53040;SDS011;39326;42.650;23.248;2023-07-30T08:07:22;4.78;;;4.35;;
53040;SDS011;39326;42.650;23.248;2023-07-30T08:09:47;4.13;;;3.72;;
53040;SDS011;39326;42.650;23.248;2023-07-30T08:12:13;4.50;;;4.20;;
53040;SDS011;39326;42.650;23.248;2023-07-30T08:14:39;4.85;;;4.10;;
53040;SDS011;39326;42.650;23.248;2023-07-30T08:17:04;3.58;;;3.30;;
53040;SDS011;39326;42.650;23.248;2023-07-30T08:19:30;4.38;;;3.97;;
53040;SDS011;39326;42.650;23.248;2023-07-30T08:21:55;4.55;;;4.13;;
53040;SDS011;39326;42.650;23.248;2023-07-30T08:24:23;4.57;;;3.72;;
53040;SDS011;39326;42.650;23.248;2023-07-30T08:26:49;4.28;;;3.85;;
53040;SDS011;39326;42.650;23.248;2023-07-30T08:29:14;3.90;;;3.60;;
53040;SDS011;39326;42.650;23.248;2023-07-30T08:31:40;4.15;;;3.75;;
53040;SDS011;39326;42.650;23.248;2023-07-30T08:34:06;5.18;;;3.65;;
53040;SDS011;39326;42.650;23.248;2023-07-30T08:36:31;5.57;;;3.67;;
53040;SDS011;39326;42.650;23.248;2023-07-30T08:38:57;5.78;;;3.97;;
53040;SDS011;39326;42.650;23.248;2023-07-30T08:41:23;3.80;;;3.47;;
53040;SDS011;39326;42.650;23.248;2023-07-30T08:43:48;5.05;;;3.63;;
53040;SDS011;39326;42.650;23.248;2023-07-30T08:46:14;3.67;;;3.38;;
53040;SDS011;39326;42.650;23.248;2023-07-30T08:48:40;4.20;;;3.70;;
53040;SDS011;39326;42.650;23.248;2023-07-30T08:51:06;4.75;;;3.83;;
53040;SDS011;39326;42.650;23.248;2023-07-30T08:53:31;5.13;;;3.58;;
53040;SDS011;39326;42.650;23.248;2023-07-30T08:55:57;4.25;;;3.95;;
53040;SDS011;39326;42.650;23.248;2023-07-30T08:58:25;4.82;;;3.88;;
53040;SDS011;39326;42.650;23.248;2023-07-30T09:00:53;4.20;;;3.80;;
53040;SDS011;39326;42.650;23.248;2023-07-30T09:03:20;3.60;;;3.30;;
53040;SDS011;39326;42.650;23.248;2023-07-30T09:05:50;4.22;;;3.65;;
53040;SDS011;39326;42.650;23.248;2023-07-30T09:08:16;4.93;;;4.53;;
53040;SDS011;39326;42.650;23.248;2023-07-30T09:10:43;4.63;;;4.03;;
53040;SDS011;39326;42.650;23.248;2023-07-30T09:13:08;4.20;;;3.80;;
53040;SDS011;39326;42.650;23.248;2023-07-30T09:15:35;3.58;;;3.28;;
53040;SDS011;39326;42.650;23.248;2023-07-30T09:18:05;3.53;;;3.22;;
53040;SDS011;39326;42.650;23.248;2023-07-30T09:20:38;3.75;;;3.40;;
53040;SDS011;39326;42.650;23.248;2023-07-30T09:23:04;4.28;;;3.53;;
53040;SDS011;39326;42.650;23.248;2023-07-30T09:25:32;4.05;;;3.17;;
53040;SDS011;39326;42.650;23.248;2023-07-30T09:27:57;4.18;;;3.67;;
53040;SDS011;39326;42.650;23.248;2023-07-30T09:30:24;4.45;;;3.72;;
53040;SDS011;39326;42.650;23.248;2023-07-30T09:33:00;3.40;;;3.20;;
53040;SDS011;39326;42.650;23.248;2023-07-30T09:35:25;3.50;;;3.30;;
53040;SDS011;39326;42.650;23.248;2023-07-30T09:38:02;4.00;;;3.60;;
53040;SDS011;39326;42.650;23.248;2023-07-30T09:40:35;4.60;;;3.10;;
53040;SDS011;39326;42.650;23.248;2023-07-30T09:43:02;3.58;;;3.15;;
53040;SDS011;39326;42.650;23.248;2023-07-30T09:45:28;3.75;;;3.38;;
53040;SDS011;39326;42.650;23.248;2023-07-30T09:47:54;3.85;;;3.53;;
53040;SDS011;39326;42.650;23.248;2023-07-30T09:50:21;5.30;;;4.07;;
53040;SDS011;39326;42.650;23.248;2023-07-30T09:52:47;3.80;;;3.50;;
53040;SDS011;39326;42.650;23.248;2023-07-30T09:55:15;3.65;;;3.45;;
53040;SDS011;39326;42.650;23.248;2023-07-30T09:57:40;4.40;;;4.00;;
53040;SDS011;39326;42.650;23.248;2023-07-30T10:00:06;4.38;;;3.47;;
53040;SDS011;39326;42.650;23.248;2023-07-30T10:02:40;4.30;;;3.80;;
53040;SDS011;39326;42.650;23.248;2023-07-30T10:05:16;3.63;;;3.42;;
53040;SDS011;39326;42.650;23.248;2023-07-30T10:07:46;3.80;;;3.45;;
53040;SDS011;39326;42.650;23.248;2023-07-30T10:10:16;4.38;;;3.97;;
53040;SDS011;39326;42.650;23.248;2023-07-30T10:12:44;4.20;;;3.90;;
53040;SDS011;39326;42.650;23.248;2023-07-30T10:15:10;5.15;;;3.85;;
53040;SDS011;39326;42.650;23.248;2023-07-30T10:17:35;3.40;;;3.17;;
53040;SDS011;39326;42.650;23.248;2023-07-30T10:20:21;5.03;;;4.55;;
53040;SDS011;39326;42.650;23.248;2023-07-30T10:22:54;6.00;;;4.10;;
53040;SDS011;39326;42.650;23.248;2023-07-30T10:25:43;5.72;;;3.85;;
53040;SDS011;39326;42.650;23.248;2023-07-30T10:28:11;12.10;;;4.78;;
53040;SDS011;39326;42.650;23.248;2023-07-30T10:30:58;4.18;;;3.75;;
53040;SDS011;39326;42.650;23.248;2023-07-30T10:33:27;4.30;;;3.53;;
53040;SDS011;39326;42.650;23.248;2023-07-30T10:36:09;4.05;;;3.75;;
53040;SDS011;39326;42.650;23.248;2023-07-30T10:38:35;4.35;;;3.95;;
53040;SDS011;39326;42.650;23.248;2023-07-30T10:41:05;4.93;;;3.70;;
53040;SDS011;39326;42.650;23.248;2023-07-30T10:43:35;3.95;;;3.65;;
53040;SDS011;39326;42.650;23.248;2023-07-30T10:46:08;4.20;;;3.80;;
53040;SDS011;39326;42.650;23.248;2023-07-30T10:48:36;4.45;;;4.05;;
53040;SDS011;39326;42.650;23.248;2023-07-30T10:51:05;4.80;;;4.32;;
53040;SDS011;39326;42.650;23.248;2023-07-30T10:53:32;4.47;;;4.07;;
53040;SDS011;39326;42.650;23.248;2023-07-30T10:55:58;4.32;;;3.92;;
53040;SDS011;39326;42.650;23.248;2023-07-30T10:58:27;4.57;;;3.70;;
53040;SDS011;39326;42.650;23.248;2023-07-30T11:00:53;4.45;;;3.78;;
53040;SDS011;39326;42.650;23.248;2023-07-30T11:03:19;4.57;;;4.18;;
53040;SDS011;39326;42.650;23.248;2023-07-30T11:05:48;4.13;;;3.78;;
53040;SDS011;39326;42.650;23.248;2023-07-30T11:08:14;4.35;;;3.95;;
53040;SDS011;39326;42.650;23.248;2023-07-30T11:10:43;4.40;;;4.10;;
53040;SDS011;39326;42.650;23.248;2023-07-30T11:13:10;4.05;;;3.75;;
53040;SDS011;39326;42.650;23.248;2023-07-30T11:15:43;4.35;;;4.05;;
53040;SDS011;39326;42.650;23.248;2023-07-30T11:18:09;4.22;;;3.92;;
53040;SDS011;39326;42.650;23.248;2023-07-30T11:20:36;4.50;;;4.10;;
53040;SDS011;39326;42.650;23.248;2023-07-30T11:23:02;4.35;;;4.05;;
53040;SDS011;39326;42.650;23.248;2023-07-30T11:25:28;4.38;;;4.07;;
53040;SDS011;39326;42.650;23.248;2023-07-30T11:27:53;4.82;;;4.43;;
53040;SDS011;39326;42.650;23.248;2023-07-30T11:30:18;4.60;;;4.20;;
53040;SDS011;39326;42.650;23.248;2023-07-30T11:32:44;4.50;;;4.13;;
53040;SDS011;39326;42.650;23.248;2023-07-30T11:35:11;4.40;;;4.10;;
53040;SDS011;39326;42.650;23.248;2023-07-30T11:37:38;4.57;;;4.20;;
53040;SDS011;39326;42.650;23.248;2023-07-30T11:40:08;4.68;;;4.28;;
53040;SDS011;39326;42.650;23.248;2023-07-30T11:42:36;4.70;;;4.40;;
53040;SDS011;39326;42.650;23.248;2023-07-30T11:45:36;4.50;;;4.10;;
53040;SDS011;39326;42.650;23.248;2023-07-30T11:47:54;4.30;;;3.95;;
53040;SDS011;39326;42.650;23.248;2023-07-30T11:53:43;4.45;;;4.05;;
53040;SDS011;39326;42.650;23.248;2023-07-30T11:56:24;5.28;;;4.13;;
53040;SDS011;39326;42.650;23.248;2023-07-30T11:58:57;4.60;;;4.30;;
53040;SDS011;39326;42.650;23.248;2023-07-30T12:01:24;5.40;;;3.92;;
53040;SDS011;39326;42.650;23.248;2023-07-30T12:03:57;4.00;;;3.70;;
53040;SDS011;39326;42.650;23.248;2023-07-30T12:06:37;5.05;;;4.40;;
53040;SDS011;39326;42.650;23.248;2023-07-30T12:11:48;5.13;;;4.53;;
53040;SDS011;39326;42.650;23.248;2023-07-30T12:14:22;6.85;;;5.07;;
53040;SDS011;39326;42.650;23.248;2023-07-30T12:17:01;4.95;;;4.30;;
53040;SDS011;39326;42.650;23.248;2023-07-30T12:19:28;4.72;;;4.28;;
53040;SDS011;39326;42.650;23.248;2023-07-30T12:21:53;4.70;;;4.38;;
53040;SDS011;39326;42.650;23.248;2023-07-30T12:24:19;5.10;;;4.70;;
53040;SDS011;39326;42.650;23.248;2023-07-30T12:26:44;4.25;;;3.88;;
53040;SDS011;39326;42.650;23.248;2023-07-30T12:29:10;4.60;;;4.30;;
53040;SDS011;39326;42.650;23.248;2023-07-30T12:31:35;5.97;;;4.50;;
53040;SDS011;39326;42.650;23.248;2023-07-30T12:34:01;4.85;;;4.45;;
53040;SDS011;39326;42.650;23.248;2023-07-30T12:36:27;4.82;;;4.25;;
53040;SDS011;39326;42.650;23.248;2023-07-30T12:38:52;5.00;;;4.50;;
53040;SDS011;39326;42.650;23.248;2023-07-30T12:41:19;5.28;;;4.50;;
53040;SDS011;39326;42.650;23.248;2023-07-30T12:43:50;5.07;;;4.57;;
53040;SDS011;39326;42.650;23.248;2023-07-30T12:46:17;4.93;;;4.53;;
53040;SDS011;39326;42.650;23.248;2023-07-30T12:48:43;4.38;;;3.97;;
53040;SDS011;39326;42.650;23.248;2023-07-30T12:51:08;5.05;;;4.50;;
53040;SDS011;39326;42.650;23.248;2023-07-30T12:53:34;5.35;;;4.85;;
53040;SDS011;39326;42.650;23.248;2023-07-30T12:55:59;5.00;;;4.57;;
53040;SDS011;39326;42.650;23.248;2023-07-30T12:58:24;5.20;;;4.68;;
53040;SDS011;39326;42.650;23.248;2023-07-30T13:00:50;5.30;;;4.50;;
53040;SDS011;39326;42.650;23.248;2023-07-30T13:03:15;5.50;;;4.95;;
53040;SDS011;39326;42.650;23.248;2023-07-30T13:05:41;5.45;;;4.72;;
53040;SDS011;39326;42.650;23.248;2023-07-30T13:08:06;5.05;;;4.53;;
53040;SDS011;39326;42.650;23.248;2023-07-30T13:10:31;5.07;;;4.60;;
53040;SDS011;39326;42.650;23.248;2023-07-30T13:12:57;5.07;;;4.68;;
53040;SDS011;39326;42.650;23.248;2023-07-30T13:15:22;6.40;;;5.80;;
53040;SDS011;39326;42.650;23.248;2023-07-30T13:17:48;5.43;;;4.60;;
53040;SDS011;39326;42.650;23.248;2023-07-30T13:20:14;5.88;;;5.10;;
53040;SDS011;39326;42.650;23.248;2023-07-30T13:22:39;4.72;;;4.32;;
53040;SDS011;39326;42.650;23.248;2023-07-30T13:25:04;5.10;;;4.68;;
53040;SDS011;39326;42.650;23.248;2023-07-30T13:27:30;5.47;;;5.00;;
53040;SDS011;39326;42.650;23.248;2023-07-30T13:29:55;4.88;;;4.35;;
53040;SDS011;39326;42.650;23.248;2023-07-30T13:32:21;4.75;;;4.45;;
53040;SDS011;39326;42.650;23.248;2023-07-30T13:34:46;5.68;;;4.50;;
53040;SDS011;39326;42.650;23.248;2023-07-30T13:37:12;5.07;;;4.57;;
53040;SDS011;39326;42.650;23.248;2023-07-30T13:39:37;4.82;;;4.43;;
53040;SDS011;39326;42.650;23.248;2023-07-30T13:42:03;5.15;;;4.75;;
53040;SDS011;39326;42.650;23.248;2023-07-30T13:44:28;5.10;;;4.60;;
53040;SDS011;39326;42.650;23.248;2023-07-30T13:46:54;4.40;;;4.10;;
53040;SDS011;39326;42.650;23.248;2023-07-30T13:49:19;5.38;;;4.85;;
53040;SDS011;39326;42.650;23.248;2023-07-30T13:51:44;5.05;;;4.50;;
53040;SDS011;39326;42.650;23.248;2023-07-30T13:54:10;6.95;;;4.90;;
53040;SDS011;39326;42.650;23.248;2023-07-30T13:56:35;4.82;;;4.43;;
53040;SDS011;39326;42.650;23.248;2023-07-30T13:59:03;5.20;;;4.53;;
53040;SDS011;39326;42.650;23.248;2023-07-30T14:01:29;6.05;;;4.90;;
53040;SDS011;39326;42.650;23.248;2023-07-30T14:03:54;5.50;;;4.57;;
53040;SDS011;39326;42.650;23.248;2023-07-30T14:06:20;5.53;;;5.03;;
53040;SDS011;39326;42.650;23.248;2023-07-30T14:08:45;5.75;;;4.97;;
53040;SDS011;39326;42.650;23.248;2023-07-30T14:11:11;5.40;;;4.90;;
53040;SDS011;39326;42.650;23.248;2023-07-30T14:13:36;5.07;;;4.53;;
53040;SDS011;39326;42.650;23.248;2023-07-30T14:16:02;4.97;;;4.57;;
53040;SDS011;39326;42.650;23.248;2023-07-30T14:18:27;5.70;;;4.50;;
53040;SDS011;39326;42.650;23.248;2023-07-30T14:20:53;5.50;;;4.97;;
53040;SDS011;39326;42.650;23.248;2023-07-30T14:23:18;5.40;;;4.90;;
53040;SDS011;39326;42.650;23.248;2023-07-30T14:25:44;5.07;;;4.68;;
53040;SDS011;39326;42.650;23.248;2023-07-30T14:28:09;5.28;;;4.88;;
53040;SDS011;39326;42.650;23.248;2023-07-30T14:30:35;5.63;;;4.22;;
53040;SDS011;39326;42.650;23.248;2023-07-30T14:33:01;4.97;;;4.50;;
53040;SDS011;39326;42.650;23.248;2023-07-30T14:35:27;4.63;;;4.22;;
53040;SDS011;39326;42.650;23.248;2023-07-30T14:37:52;5.75;;;4.75;;